Blue Ridge Highway — 3FEY4 — position and weather

sailwx.info

Track history (hours):
 
Tides and Currents Weather Stations Pressure Air Temp Water Temp Dewpoint Dewpoint Depression Visibility Wind Speed Wind Dir Waves Ship Positions

Blue Ridge Highway

Last reported at 2015-May-24 06:33 UTC. Time now 2015-May-24 07:14 UTC.
Position N 38°31' W 008°52'.

Length 180 m; draft 8 m.

Type: Cargo ship. MMSI: 355558000.

Date/timePositionNaut miles runAvg speedWind from/ knotsBaromVisibWave heightAir tempDewpointWater temp
2015-May-24 06:33N 38°31' W 008°52'0 0.0
2015-May-24 05:30N 38°31' W 008°52'0 0.0
2015-May-24 04:33N 38°31' W 008°52'0 0.0
2015-May-24 03:33N 38°31' W 008°52'0 0.0
2015-May-24 02:30N 38°31' W 008°52'0 0.0
2015-May-24 01:30N 38°31' W 008°52'0 0.0
2015-May-24 00:33N 38°31' W 008°52'0 0.0
2015-May-23 23:33N 38°31' W 008°52'0 0.0
2015-May-23 22:33N 38°31' W 008°52'0 0.0
2015-May-23 21:33N 38°31' W 008°52'0 0.0
2015-May-23 20:24N 38°31' W 008°52'0 0.0
2015-May-23 19:33N 38°31' W 008°52'0 0.0
2015-May-23 18:27N 38°31' W 008°52'0 0.0
2015-May-23 17:33N 38°31' W 008°52'0 0.0
2015-May-23 16:33N 38°31' W 008°52'0 0.0
2015-May-23 15:33N 38°31' W 008°52'0 0.0
2015-May-23 14:33N 38°31' W 008°52'0 0.0
2015-May-23 13:33N 38°31' W 008°52'0 0.1
2015-May-23 12:33N 38°31' W 008°52'7 7.2
2015-May-23 11:33N 38°26' W 008°59'1110.9
2015-May-23 10:33N 38°17' W 009°06'1515.2
2015-May-23 09:33N 38°22' W 009°24'1717.0
2015-May-23 08:33N 38°28' W 009°44'1717.0
2015-May-23 07:33N 38°35' W 010°04'1717.0
2015-May-23 06:33N 38°52' W 010°07'1717.2
2015-May-23 05:33N 39°09' W 010°07'1817.5
2015-May-23 04:33N 39°27' W 010°08'1717.4
2015-May-23 03:33N 39°44' W 010°07'1717.2
2015-May-23 02:32N 40°02' W 010°07'1717.3
2015-May-23 01:33N 40°19' W 010°07'1817.3
2015-May-23 00:30N 40°37' W 010°07'67717.2
2015-May-21 09:09N 51°32' W 006°01'1016.2
2015-May-21 08:32N 51°42' W 006°00'145 4.0
2015-May-19 20:21N 49°58' W 003°20'1714.8
2015-May-19 19:14N 50°01' W 002°55'1314.8
2015-May-19 18:19N 50°04' W 002°34'3017.0
2015-May-19 16:33N 50°14' W 001°50'2319.4
2015-May-19 15:21N 50°19' W 001°14'1620.3
2015-May-19 14:32N 50°23' W 000°50'3617.9
2015-May-19 12:30N 50°33' E 000°05'1515.7
2015-May-19 11:34N 50°37' E 000°28'1515.1
2015-May-19 10:33N 50°44' E 000°49'1615.6
2015-May-19 09:33N 50°54' E 001°09'1818.1
2015-May-19 08:34N 51°05' E 001°30'2019.5
2015-May-19 07:34N 51°20' E 001°52'1818.2
2015-May-19 06:34N 51°34' E 002°08'1716.8
2015-May-19 05:31N 51°48' E 002°26'10914.9
2015-May-18 22:09N 53°11' E 004°24'1115.1
2015-May-18 21:26N 53°21' E 004°29'4 4.4
2015-May-18 20:33N 53°24' E 004°34'1211.6
2015-May-18 19:33N 53°31' E 004°49'1414.5
2015-May-18 18:33N 53°35' E 005°12'1413.6
2015-May-18 17:33N 53°40' E 005°34'1414.5
2015-May-18 16:33N 53°44' E 005°57'1414.4
2015-May-18 15:33N 53°38' E 006°19'1515.3
2015-May-18 14:33N 53°32' E 006°43'1616.3
2015-May-18 13:34N 53°20' E 007°00'6 5.6
2015-May-18 12:31N 53°20' E 007°10'0 0.0
2015-May-18 11:31N 53°20' E 007°10'0 0.0
2015-May-18 10:28N 53°20' E 007°10'0 0.0
2015-May-18 09:31N 53°20' E 007°10'0 0.0
2015-May-18 08:31N 53°20' E 007°10'0 0.0
2015-May-18 07:31N 53°20' E 007°10'0 0.0
2015-May-18 06:25N 53°20' E 007°10'0 0.0
2015-May-18 05:31N 53°20' E 007°10'0 0.0
2015-May-18 04:31N 53°20' E 007°10'0 0.0
2015-May-18 03:31N 53°20' E 007°10'0 0.0
2015-May-18 02:31N 53°20' E 007°10'0 0.0
2015-May-18 01:31N 53°20' E 007°10'0 0.0
2015-May-18 00:31N 53°20' E 007°10'0 0.0
2015-May-17 23:25N 53°20' E 007°10'0 0.0
2015-May-17 22:31N 53°20' E 007°10'0 0.0
2015-May-17 21:31N 53°20' E 007°10'0 0.0
2015-May-17 20:31N 53°20' E 007°10'0 0.0
2015-May-17 19:31N 53°20' E 007°10'0 0.0
2015-May-17 18:31N 53°20' E 007°10'0 0.0
2015-May-17 17:31N 53°20' E 007°10'0 0.0
2015-May-17 16:31N 53°20' E 007°10'0 0.0
2015-May-17 15:31N 53°20' E 007°10'0 0.0
2015-May-17 14:31N 53°20' E 007°10'0 0.0
2015-May-17 13:28N 53°20' E 007°10'0 0.0
2015-May-17 12:31N 53°20' E 007°10'0 0.0
2015-May-17 11:31N 53°20' E 007°10'0 0.0
2015-May-17 10:31N 53°20' E 007°10'0 0.0
2015-May-17 09:31N 53°20' E 007°10'0 0.0
2015-May-17 08:19N 53°20' E 007°10'0 0.0
2015-May-17 07:31N 53°20' E 007°10'0 0.0
2015-May-17 06:28N 53°20' E 007°10'0 0.0
2015-May-17 05:31N 53°20' E 007°10'0 0.0
2015-May-17 04:31N 53°20' E 007°10'0 0.0
2015-May-17 03:31N 53°20' E 007°10'0 0.0
2015-May-17 02:31N 53°20' E 007°10'0 0.0
2015-May-17 01:31N 53°20' E 007°10'0 0.0
2015-May-17 00:31N 53°20' E 007°10'0 0.0
2015-May-16 23:31N 53°20' E 007°10'0 0.0
2015-May-16 22:31N 53°20' E 007°10'0 0.0
2015-May-16 21:31N 53°20' E 007°10'0 0.0
2015-May-16 20:28N 53°20' E 007°10'0 0.0
2015-May-16 19:31N 53°20' E 007°10'0 0.0
2015-May-16 18:31N 53°20' E 007°10'0 0.0
2015-May-16 17:31N 53°20' E 007°10'0 0.0
2015-May-16 16:31N 53°20' E 007°10'0 0.0
2015-May-16 15:28N 53°20' E 007°10'0 0.0
2015-May-16 14:28N 53°20' E 007°10'0 0.0
2015-May-16 13:31N 53°20' E 007°10'0 0.0
2015-May-16 12:31N 53°20' E 007°10'0 0.0
2015-May-16 11:31N 53°20' E 007°10'0 0.0
2015-May-16 10:31N 53°20' E 007°10'0 0.0
2015-May-16 09:25N 53°20' E 007°10'1 1.1
2015-May-16 08:33N 53°20' E 007°08'1010.1
2015-May-16 07:33N 53°26' E 006°55'1818.2
2015-May-16 06:33N 53°37' E 006°30'9 9.5
2015-May-16 05:33N 53°36' E 006°14'0 0.2
2015-May-16 04:33N 53°36' E 006°14'0 0.0
2015-May-16 03:33N 53°36' E 006°14'0 0.0
2015-May-16 02:30N 53°36' E 006°14'0 0.0
2015-May-16 01:33N 53°36' E 006°14'0 0.1
2015-May-16 00:30N 53°36' E 006°14'0 0.1
2015-May-15 23:33N 53°36' E 006°14'0 0.0
2015-May-15 22:33N 53°36' E 006°14'0 0.1
2015-May-15 21:30N 53°36' E 006°14'0 0.0
2015-May-15 20:33N 53°36' E 006°14'0 0.0
2015-May-15 19:27N 53°36' E 006°14'0 0.0
2015-May-15 18:30N 53°36' E 006°14'0 0.0
2015-May-15 17:30N 53°36' E 006°14'0 0.0
2015-May-15 16:33N 53°36' E 006°14'0 0.0
2015-May-15 15:33N 53°36' E 006°14'0 0.0
2015-May-15 13:30N 53°36' E 006°14'0 0.1
2015-May-15 12:33N 53°36' E 006°14'0 0.0
2015-May-15 11:18N 53°36' E 006°14'0 0.0
2015-May-15 10:33N 53°36' E 006°14'0 0.0
2015-May-15 09:27N 53°36' E 006°14'0 0.0
2015-May-15 08:30N 53°36' E 006°14'0 0.0
2015-May-15 07:30N 53°36' E 006°14'0 0.0
2015-May-15 06:27N 53°36' E 006°14'0 0.1
2015-May-15 05:30N 53°36' E 006°14'0 0.0
2015-May-15 04:27N 53°36' E 006°14'0 0.0
2015-May-15 03:33N 53°36' E 006°14'0 0.0
2015-May-15 02:12N 53°36' E 006°14'0 0.1
2015-May-15 01:33N 53°36' E 006°14'0 0.0
2015-May-14 22:33N 53°36' E 006°14'0 0.0
2015-May-14 21:27N 53°36' E 006°14'0 0.0
2015-May-14 20:24N 53°36' E 006°14'0 0.0
2015-May-14 19:33N 53°36' E 006°14'0 0.0
2015-May-14 18:33N 53°36' E 006°14'0 0.0
2015-May-14 17:21N 53°36' E 006°14'0 0.0
2015-May-14 16:33N 53°36' E 006°14'0 0.0
2015-May-14 15:30N 53°36' E 006°14'0 0.0
2015-May-14 14:33N 53°36' E 006°14'0 0.0
2015-May-14 13:33N 53°36' E 006°14'0 0.0
2015-May-14 12:30N 53°36' E 006°14'0 0.0
2015-May-14 11:21N 53°36' E 006°14'0 0.0
2015-May-14 10:18N 53°36' E 006°14'0 0.0
2015-May-14 09:24N 53°36' E 006°14'0 0.1
2015-May-14 08:33N 53°36' E 006°14'0 0.0
2015-May-14 07:24N 53°36' E 006°14'  
Track history (hours):
 
Tides and Currents Weather Stations Pressure Air Temp Water Temp Dewpoint Dewpoint Depression Visibility Wind Speed Wind Dir Waves Ship Positions

Blue Ridge Highway

Last reported at 2015-May-24 06:33 UTC. Time now 2015-May-24 07:14 UTC.
Position N 38°31' W 008°52'.

Length 180 m; draft 8 m.

Type: Cargo ship. MMSI: 355558000.

Date/timePositionNaut miles runAvg speedWind from/ knotsBaromVisibWave heightAir tempDewpointWater temp
2015-May-24 06:33N 38°31' W 008°52'0 0.0
2015-May-24 05:30N 38°31' W 008°52'0 0.0
2015-May-24 04:33N 38°31' W 008°52'0 0.0
2015-May-24 03:33N 38°31' W 008°52'0 0.0
2015-May-24 02:30N 38°31' W 008°52'0 0.0
2015-May-24 01:30N 38°31' W 008°52'0 0.0
2015-May-24 00:33N 38°31' W 008°52'0 0.0
2015-May-23 23:33N 38°31' W 008°52'0 0.0
2015-May-23 22:33N 38°31' W 008°52'0 0.0
2015-May-23 21:33N 38°31' W 008°52'0 0.0
2015-May-23 20:24N 38°31' W 008°52'0 0.0
2015-May-23 19:33N 38°31' W 008°52'0 0.0
2015-May-23 18:27N 38°31' W 008°52'0 0.0
2015-May-23 17:33N 38°31' W 008°52'0 0.0
2015-May-23 16:33N 38°31' W 008°52'0 0.0
2015-May-23 15:33N 38°31' W 008°52'0 0.0
2015-May-23 14:33N 38°31' W 008°52'0 0.0
2015-May-23 13:33N 38°31' W 008°52'0 0.1
2015-May-23 12:33N 38°31' W 008°52'7 7.2
2015-May-23 11:33N 38°26' W 008°59'1110.9
2015-May-23 10:33N 38°17' W 009°06'1515.2
2015-May-23 09:33N 38°22' W 009°24'1717.0
2015-May-23 08:33N 38°28' W 009°44'1717.0
2015-May-23 07:33N 38°35' W 010°04'1717.0
2015-May-23 06:33N 38°52' W 010°07'1717.2
2015-May-23 05:33N 39°09' W 010°07'1817.5
2015-May-23 04:33N 39°27' W 010°08'1717.4
2015-May-23 03:33N 39°44' W 010°07'1717.2
2015-May-23 02:32N 40°02' W 010°07'1717.3
2015-May-23 01:33N 40°19' W 010°07'1817.3
2015-May-23 00:30N 40°37' W 010°07'67717.2
2015-May-21 09:09N 51°32' W 006°01'1016.2
2015-May-21 08:32N 51°42' W 006°00'145 4.0
2015-May-19 20:21N 49°58' W 003°20'1714.8
2015-May-19 19:14N 50°01' W 002°55'1314.8
2015-May-19 18:19N 50°04' W 002°34'3017.0
2015-May-19 16:33N 50°14' W 001°50'2319.4
2015-May-19 15:21N 50°19' W 001°14'1620.3
2015-May-19 14:32N 50°23' W 000°50'3617.9
2015-May-19 12:30N 50°33' E 000°05'1515.7
2015-May-19 11:34N 50°37' E 000°28'1515.1
2015-May-19 10:33N 50°44' E 000°49'1615.6
2015-May-19 09:33N 50°54' E 001°09'1818.1
2015-May-19 08:34N 51°05' E 001°30'2019.5
2015-May-19 07:34N 51°20' E 001°52'1818.2
2015-May-19 06:34N 51°34' E 002°08'1716.8
2015-May-19 05:31N 51°48' E 002°26'10914.9
2015-May-18 22:09N 53°11' E 004°24'1115.1
2015-May-18 21:26N 53°21' E 004°29'4 4.4
2015-May-18 20:33N 53°24' E 004°34'1211.6
2015-May-18 19:33N 53°31' E 004°49'1414.5
2015-May-18 18:33N 53°35' E 005°12'1413.6
2015-May-18 17:33N 53°40' E 005°34'1414.5
2015-May-18 16:33N 53°44' E 005°57'1414.4
2015-May-18 15:33N 53°38' E 006°19'1515.3
2015-May-18 14:33N 53°32' E 006°43'1616.3
2015-May-18 13:34N 53°20' E 007°00'6 5.6
2015-May-18 12:31N 53°20' E 007°10'0 0.0
2015-May-18 11:31N 53°20' E 007°10'0 0.0
2015-May-18 10:28N 53°20' E 007°10'0 0.0
2015-May-18 09:31N 53°20' E 007°10'0 0.0
2015-May-18 08:31N 53°20' E 007°10'0 0.0
2015-May-18 07:31N 53°20' E 007°10'0 0.0
2015-May-18 06:25N 53°20' E 007°10'0 0.0
2015-May-18 05:31N 53°20' E 007°10'0 0.0
2015-May-18 04:31N 53°20' E 007°10'0 0.0
2015-May-18 03:31N 53°20' E 007°10'0 0.0
2015-May-18 02:31N 53°20' E 007°10'0 0.0
2015-May-18 01:31N 53°20' E 007°10'0 0.0
2015-May-18 00:31N 53°20' E 007°10'0 0.0
2015-May-17 23:25N 53°20' E 007°10'0 0.0
2015-May-17 22:31N 53°20' E 007°10'0 0.0
2015-May-17 21:31N 53°20' E 007°10'0 0.0
2015-May-17 20:31N 53°20' E 007°10'0 0.0
2015-May-17 19:31N 53°20' E 007°10'0 0.0
2015-May-17 18:31N 53°20' E 007°10'0 0.0
2015-May-17 17:31N 53°20' E 007°10'0 0.0
2015-May-17 16:31N 53°20' E 007°10'0 0.0
2015-May-17 15:31N 53°20' E 007°10'0 0.0
2015-May-17 14:31N 53°20' E 007°10'0 0.0
2015-May-17 13:28N 53°20' E 007°10'0 0.0
2015-May-17 12:31N 53°20' E 007°10'0 0.0
2015-May-17 11:31N 53°20' E 007°10'0 0.0
2015-May-17 10:31N 53°20' E 007°10'0 0.0
2015-May-17 09:31N 53°20' E 007°10'0 0.0
2015-May-17 08:19N 53°20' E 007°10'0 0.0
2015-May-17 07:31N 53°20' E 007°10'0 0.0
2015-May-17 06:28N 53°20' E 007°10'0 0.0
2015-May-17 05:31N 53°20' E 007°10'0 0.0
2015-May-17 04:31N 53°20' E 007°10'0 0.0
2015-May-17 03:31N 53°20' E 007°10'0 0.0
2015-May-17 02:31N 53°20' E 007°10'0 0.0
2015-May-17 01:31N 53°20' E 007°10'0 0.0
2015-May-17 00:31N 53°20' E 007°10'0 0.0
2015-May-16 23:31N 53°20' E 007°10'0 0.0
2015-May-16 22:31N 53°20' E 007°10'0 0.0
2015-May-16 21:31N 53°20' E 007°10'0 0.0
2015-May-16 20:28N 53°20' E 007°10'0 0.0
2015-May-16 19:31N 53°20' E 007°10'0 0.0
2015-May-16 18:31N 53°20' E 007°10'0 0.0
2015-May-16 17:31N 53°20' E 007°10'0 0.0
2015-May-16 16:31N 53°20' E 007°10'0 0.0
2015-May-16 15:28N 53°20' E 007°10'0 0.0
2015-May-16 14:28N 53°20' E 007°10'0 0.0
2015-May-16 13:31N 53°20' E 007°10'0 0.0
2015-May-16 12:31N 53°20' E 007°10'0 0.0
2015-May-16 11:31N 53°20' E 007°10'0 0.0
2015-May-16 10:31N 53°20' E 007°10'0 0.0
2015-May-16 09:25N 53°20' E 007°10'1 1.1
2015-May-16 08:33N 53°20' E 007°08'1010.1
2015-May-16 07:33N 53°26' E 006°55'1818.2
2015-May-16 06:33N 53°37' E 006°30'9 9.5
2015-May-16 05:33N 53°36' E 006°14'0 0.2
2015-May-16 04:33N 53°36' E 006°14'0 0.0
2015-May-16 03:33N 53°36' E 006°14'0 0.0
2015-May-16 02:30N 53°36' E 006°14'0 0.0
2015-May-16 01:33N 53°36' E 006°14'0 0.1
2015-May-16 00:30N 53°36' E 006°14'0 0.1
2015-May-15 23:33N 53°36' E 006°14'0 0.0
2015-May-15 22:33N 53°36' E 006°14'0 0.1
2015-May-15 21:30N 53°36' E 006°14'0 0.0
2015-May-15 20:33N 53°36' E 006°14'0 0.0
2015-May-15 19:27N 53°36' E 006°14'0 0.0
2015-May-15 18:30N 53°36' E 006°14'0 0.0
2015-May-15 17:30N 53°36' E 006°14'0 0.0
2015-May-15 16:33N 53°36' E 006°14'0 0.0
2015-May-15 15:33N 53°36' E 006°14'0 0.0
2015-May-15 13:30N 53°36' E 006°14'0 0.1
2015-May-15 12:33N 53°36' E 006°14'0 0.0
2015-May-15 11:18N 53°36' E 006°14'0 0.0
2015-May-15 10:33N 53°36' E 006°14'0 0.0
2015-May-15 09:27N 53°36' E 006°14'0 0.0
2015-May-15 08:30N 53°36' E 006°14'0 0.0
2015-May-15 07:30N 53°36' E 006°14'0 0.0
2015-May-15 06:27N 53°36' E 006°14'0 0.1
2015-May-15 05:30N 53°36' E 006°14'0 0.0
2015-May-15 04:27N 53°36' E 006°14'0 0.0
2015-May-15 03:33N 53°36' E 006°14'0 0.0
2015-May-15 02:12N 53°36' E 006°14'0 0.1
2015-May-15 01:33N 53°36' E 006°14'0 0.0
2015-May-14 22:33N 53°36' E 006°14'0 0.0
2015-May-14 21:27N 53°36' E 006°14'0 0.0
2015-May-14 20:24N 53°36' E 006°14'0 0.0
2015-May-14 19:33N 53°36' E 006°14'0 0.0
2015-May-14 18:33N 53°36' E 006°14'0 0.0
2015-May-14 17:21N 53°36' E 006°14'0 0.0
2015-May-14 16:33N 53°36' E 006°14'0 0.0
2015-May-14 15:30N 53°36' E 006°14'0 0.0
2015-May-14 14:33N 53°36' E 006°14'0 0.0
2015-May-14 13:33N 53°36' E 006°14'0 0.0
2015-May-14 12:30N 53°36' E 006°14'0 0.0
2015-May-14 11:21N 53°36' E 006°14'0 0.0
2015-May-14 10:18N 53°36' E 006°14'0 0.0
2015-May-14 09:24N 53°36' E 006°14'0 0.1
2015-May-14 08:33N 53°36' E 006°14'0 0.0
2015-May-14 07:24N 53°36' E 006°14'  

Dump ship's entire track history